sensor_id;sensor_type;location;lat;lon;timestamp;P1;durP1;ratioP1;P2;durP2;ratioP2
20695;SDS011;10507;52.754;13.040;2023-09-18T00:02:08;10.70;;;7.80;;
20695;SDS011;10507;52.754;13.040;2023-09-18T00:04:36;8.90;;;7.45;;
20695;SDS011;10507;52.754;13.040;2023-09-18T00:07:04;8.57;;;7.20;;
20695;SDS011;10507;52.754;13.040;2023-09-18T00:09:32;8.63;;;6.90;;
20695;SDS011;10507;52.754;13.040;2023-09-18T00:11:59;9.52;;;7.35;;
20695;SDS011;10507;52.754;13.040;2023-09-18T00:14:31;9.48;;;6.90;;
20695;SDS011;10507;52.754;13.040;2023-09-18T00:16:59;9.02;;;7.97;;
20695;SDS011;10507;52.754;13.040;2023-09-18T00:19:28;8.82;;;7.70;;
20695;SDS011;10507;52.754;13.040;2023-09-18T00:21:57;9.27;;;7.70;;
20695;SDS011;10507;52.754;13.040;2023-09-18T00:24:27;9.30;;;7.68;;
20695;SDS011;10507;52.754;13.040;2023-09-18T00:26:54;10.10;;;7.97;;
20695;SDS011;10507;52.754;13.040;2023-09-18T00:29:22;10.07;;;7.03;;
20695;SDS011;10507;52.754;13.040;2023-09-18T00:31:51;10.02;;;7.45;;
20695;SDS011;10507;52.754;13.040;2023-09-18T00:34:20;8.60;;;7.45;;
20695;SDS011;10507;52.754;13.040;2023-09-18T00:36:48;8.57;;;7.65;;
20695;SDS011;10507;52.754;13.040;2023-09-18T00:39:15;8.23;;;7.30;;
20695;SDS011;10507;52.754;13.040;2023-09-18T00:41:43;8.63;;;7.18;;
20695;SDS011;10507;52.754;13.040;2023-09-18T00:44:15;8.30;;;7.00;;
20695;SDS011;10507;52.754;13.040;2023-09-18T00:46:43;8.48;;;7.03;;
20695;SDS011;10507;52.754;13.040;2023-09-18T00:49:12;7.57;;;6.50;;
20695;SDS011;10507;52.754;13.040;2023-09-18T00:51:40;10.02;;;7.28;;
20695;SDS011;10507;52.754;13.040;2023-09-18T00:54:08;9.05;;;7.18;;
20695;SDS011;10507;52.754;13.040;2023-09-18T00:56:38;8.27;;;7.18;;
20695;SDS011;10507;52.754;13.040;2023-09-18T00:59:06;8.82;;;7.18;;
20695;SDS011;10507;52.754;13.040;2023-09-18T01:01:35;7.90;;;6.78;;
20695;SDS011;10507;52.754;13.040;2023-09-18T01:04:03;9.18;;;7.05;;
20695;SDS011;10507;52.754;13.040;2023-09-18T01:06:32;8.40;;;7.30;;
20695;SDS011;10507;52.754;13.040;2023-09-18T01:09:00;9.32;;;7.32;;
20695;SDS011;10507;52.754;13.040;2023-09-18T01:11:41;9.70;;;6.85;;
20695;SDS011;10507;52.754;13.040;2023-09-18T01:14:14;8.90;;;7.40;;
20695;SDS011;10507;52.754;13.040;2023-09-18T01:16:49;8.70;;;7.57;;
20695;SDS011;10507;52.754;13.040;2023-09-18T01:19:34;8.95;;;7.40;;
20695;SDS011;10507;52.754;13.040;2023-09-18T01:22:05;8.02;;;7.18;;
20695;SDS011;10507;52.754;13.040;2023-09-18T01:24:36;7.80;;;6.78;;
20695;SDS011;10507;52.754;13.040;2023-09-18T01:27:07;11.90;;;7.43;;
20695;SDS011;10507;52.754;13.040;2023-09-18T01:29:37;9.40;;;7.18;;
20695;SDS011;10507;52.754;13.040;2023-09-18T01:32:05;10.13;;;7.50;;
20695;SDS011;10507;52.754;13.040;2023-09-18T01:34:33;9.80;;;7.65;;
20695;SDS011;10507;52.754;13.040;2023-09-18T01:37:03;9.30;;;7.32;;
20695;SDS011;10507;52.754;13.040;2023-09-18T01:39:33;9.30;;;6.97;;
20695;SDS011;10507;52.754;13.040;2023-09-18T01:42:03;9.00;;;7.32;;
20695;SDS011;10507;52.754;13.040;2023-09-18T01:44:32;8.38;;;7.15;;
20695;SDS011;10507;52.754;13.040;2023-09-18T01:47:01;8.88;;;7.60;;
20695;SDS011;10507;52.754;13.040;2023-09-18T01:49:31;10.32;;;7.55;;
20695;SDS011;10507;52.754;13.040;2023-09-18T01:52:00;9.75;;;7.93;;
20695;SDS011;10507;52.754;13.040;2023-09-18T01:54:28;8.82;;;7.70;;
20695;SDS011;10507;52.754;13.040;2023-09-18T01:56:58;9.13;;;7.95;;
20695;SDS011;10507;52.754;13.040;2023-09-18T01:59:26;9.25;;;7.45;;
20695;SDS011;10507;52.754;13.040;2023-09-18T02:01:55;10.80;;;8.15;;
20695;SDS011;10507;52.754;13.040;2023-09-18T02:04:23;9.13;;;7.00;;
20695;SDS011;10507;52.754;13.040;2023-09-18T02:07:12;9.48;;;7.93;;
20695;SDS011;10507;52.754;13.040;2023-09-18T02:09:43;10.68;;;7.70;;
20695;SDS011;10507;52.754;13.040;2023-09-18T02:12:13;8.60;;;7.57;;
20695;SDS011;10507;52.754;13.040;2023-09-18T02:14:44;8.80;;;7.90;;
20695;SDS011;10507;52.754;13.040;2023-09-18T02:17:14;12.45;;;8.77;;
20695;SDS011;10507;52.754;13.040;2023-09-18T02:19:42;10.85;;;8.35;;
20695;SDS011;10507;52.754;13.040;2023-09-18T02:22:10;9.30;;;6.88;;
20695;SDS011;10507;52.754;13.040;2023-09-18T02:24:38;10.98;;;8.35;;
20695;SDS011;10507;52.754;13.040;2023-09-18T02:27:06;9.50;;;8.05;;
20695;SDS011;10507;52.754;13.040;2023-09-18T02:29:35;9.05;;;7.80;;
20695;SDS011;10507;52.754;13.040;2023-09-18T02:32:03;9.35;;;8.35;;
20695;SDS011;10507;52.754;13.040;2023-09-18T02:34:31;8.65;;;7.13;;
20695;SDS011;10507;52.754;13.040;2023-09-18T02:37:00;8.30;;;7.47;;
20695;SDS011;10507;52.754;13.040;2023-09-18T02:39:27;10.80;;;7.97;;
20695;SDS011;10507;52.754;13.040;2023-09-18T02:41:55;10.85;;;7.60;;
20695;SDS011;10507;52.754;13.040;2023-09-18T02:44:23;9.50;;;7.97;;
20695;SDS011;10507;52.754;13.040;2023-09-18T02:46:52;8.45;;;7.55;;
20695;SDS011;10507;52.754;13.040;2023-09-18T02:49:20;8.98;;;8.02;;
20695;SDS011;10507;52.754;13.040;2023-09-18T02:51:48;8.35;;;7.18;;
20695;SDS011;10507;52.754;13.040;2023-09-18T02:54:15;11.23;;;8.40;;
20695;SDS011;10507;52.754;13.040;2023-09-18T02:56:43;9.35;;;7.93;;
20695;SDS011;10507;52.754;13.040;2023-09-18T02:59:11;9.02;;;8.02;;
20695;SDS011;10507;52.754;13.040;2023-09-18T03:01:39;9.10;;;7.45;;
20695;SDS011;10507;52.754;13.040;2023-09-18T03:04:08;9.27;;;8.15;;
20695;SDS011;10507;52.754;13.040;2023-09-18T03:06:37;9.02;;;7.70;;
20695;SDS011;10507;52.754;13.040;2023-09-18T03:09:05;10.07;;;7.60;;
20695;SDS011;10507;52.754;13.040;2023-09-18T03:11:33;8.93;;;7.20;;
20695;SDS011;10507;52.754;13.040;2023-09-18T03:14:01;10.55;;;8.30;;
20695;SDS011;10507;52.754;13.040;2023-09-18T03:16:30;10.27;;;8.35;;
20695;SDS011;10507;52.754;13.040;2023-09-18T03:18:59;9.93;;;8.40;;
20695;SDS011;10507;52.754;13.040;2023-09-18T03:21:28;9.18;;;7.85;;
20695;SDS011;10507;52.754;13.040;2023-09-18T03:23:59;9.60;;;7.80;;
20695;SDS011;10507;52.754;13.040;2023-09-18T03:26:27;10.07;;;8.20;;
20695;SDS011;10507;52.754;13.040;2023-09-18T03:28:55;12.43;;;8.85;;
20695;SDS011;10507;52.754;13.040;2023-09-18T03:31:23;8.95;;;8.02;;
20695;SDS011;10507;52.754;13.040;2023-09-18T03:33:51;9.27;;;7.82;;
20695;SDS011;10507;52.754;13.040;2023-09-18T03:36:20;11.98;;;8.50;;
20695;SDS011;10507;52.754;13.040;2023-09-18T03:38:50;9.82;;;7.80;;
20695;SDS011;10507;52.754;13.040;2023-09-18T03:41:19;9.50;;;8.02;;
20695;SDS011;10507;52.754;13.040;2023-09-18T03:43:47;10.85;;;8.20;;
20695;SDS011;10507;52.754;13.040;2023-09-18T03:46:15;11.20;;;7.68;;
20695;SDS011;10507;52.754;13.040;2023-09-18T03:48:43;10.38;;;9.25;;
20695;SDS011;10507;52.754;13.040;2023-09-18T03:51:14;10.35;;;8.15;;
20695;SDS011;10507;52.754;13.040;2023-09-18T03:53:42;12.05;;;8.15;;
20695;SDS011;10507;52.754;13.040;2023-09-18T03:56:12;8.65;;;7.72;;
20695;SDS011;10507;52.754;13.040;2023-09-18T03:58:39;8.95;;;7.63;;
20695;SDS011;10507;52.754;13.040;2023-09-18T04:01:07;10.32;;;8.77;;
20695;SDS011;10507;52.754;13.040;2023-09-18T04:03:35;11.30;;;8.27;;
20695;SDS011;10507;52.754;13.040;2023-09-18T04:06:03;8.80;;;7.07;;
20695;SDS011;10507;52.754;13.040;2023-09-18T04:08:33;10.32;;;7.97;;
20695;SDS011;10507;52.754;13.040;2023-09-18T04:11:01;9.27;;;7.47;;
20695;SDS011;10507;52.754;13.040;2023-09-18T04:13:32;8.60;;;7.45;;
20695;SDS011;10507;52.754;13.040;2023-09-18T04:16:00;8.95;;;7.75;;
20695;SDS011;10507;52.754;13.040;2023-09-18T04:18:30;10.70;;;8.18;;
20695;SDS011;10507;52.754;13.040;2023-09-18T04:21:00;8.55;;;7.15;;
20695;SDS011;10507;52.754;13.040;2023-09-18T04:23:29;9.75;;;8.07;;
20695;SDS011;10507;52.754;13.040;2023-09-18T04:25:56;7.93;;;6.60;;
20695;SDS011;10507;52.754;13.040;2023-09-18T04:28:25;7.55;;;6.57;;
20695;SDS011;10507;52.754;13.040;2023-09-18T04:30:54;7.38;;;6.40;;
20695;SDS011;10507;52.754;13.040;2023-09-18T04:33:22;8.38;;;6.90;;
20695;SDS011;10507;52.754;13.040;2023-09-18T04:35:52;8.35;;;6.72;;
20695;SDS011;10507;52.754;13.040;2023-09-18T04:38:20;11.65;;;6.90;;
20695;SDS011;10507;52.754;13.040;2023-09-18T04:40:47;8.70;;;6.35;;
20695;SDS011;10507;52.754;13.040;2023-09-18T04:43:15;8.38;;;6.55;;
20695;SDS011;10507;52.754;13.040;2023-09-18T04:45:44;7.60;;;6.55;;
20695;SDS011;10507;52.754;13.040;2023-09-18T04:48:13;10.35;;;6.47;;
20695;SDS011;10507;52.754;13.040;2023-09-18T04:50:41;8.13;;;6.68;;
20695;SDS011;10507;52.754;13.040;2023-09-18T04:53:09;8.00;;;7.15;;
20695;SDS011;10507;52.754;13.040;2023-09-18T04:55:37;7.57;;;6.25;;
20695;SDS011;10507;52.754;13.040;2023-09-18T04:58:05;9.55;;;6.53;;
20695;SDS011;10507;52.754;13.040;2023-09-18T05:00:34;8.25;;;5.95;;
20695;SDS011;10507;52.754;13.040;2023-09-18T05:03:02;7.10;;;5.75;;
20695;SDS011;10507;52.754;13.040;2023-09-18T05:05:31;8.23;;;6.80;;
20695;SDS011;10507;52.754;13.040;2023-09-18T05:08:00;8.40;;;6.38;;
20695;SDS011;10507;52.754;13.040;2023-09-18T05:10:29;8.13;;;6.13;;
20695;SDS011;10507;52.754;13.040;2023-09-18T05:12:57;10.63;;;6.32;;
20695;SDS011;10507;52.754;13.040;2023-09-18T05:15:26;8.48;;;6.70;;
20695;SDS011;10507;52.754;13.040;2023-09-18T05:17:55;8.93;;;6.65;;
20695;SDS011;10507;52.754;13.040;2023-09-18T05:20:25;8.75;;;6.00;;
20695;SDS011;10507;52.754;13.040;2023-09-18T05:22:57;9.98;;;6.97;;
20695;SDS011;10507;52.754;13.040;2023-09-18T05:25:26;9.40;;;5.82;;
20695;SDS011;10507;52.754;13.040;2023-09-18T05:27:56;8.02;;;5.68;;
20695;SDS011;10507;52.754;13.040;2023-09-18T05:30:26;7.78;;;6.15;;
20695;SDS011;10507;52.754;13.040;2023-09-18T05:32:55;8.75;;;6.20;;
20695;SDS011;10507;52.754;13.040;2023-09-18T05:35:23;9.23;;;7.03;;
20695;SDS011;10507;52.754;13.040;2023-09-18T05:37:51;7.97;;;6.30;;
20695;SDS011;10507;52.754;13.040;2023-09-18T05:40:22;8.02;;;6.63;;
20695;SDS011;10507;52.754;13.040;2023-09-18T05:42:53;13.50;;;6.50;;
20695;SDS011;10507;52.754;13.040;2023-09-18T05:45:21;10.07;;;6.60;;
20695;SDS011;10507;52.754;13.040;2023-09-18T05:47:50;7.63;;;6.38;;
20695;SDS011;10507;52.754;13.040;2023-09-18T05:50:19;9.48;;;6.68;;
20695;SDS011;10507;52.754;13.040;2023-09-18T05:52:47;7.55;;;6.65;;
20695;SDS011;10507;52.754;13.040;2023-09-18T05:55:15;9.15;;;7.30;;
20695;SDS011;10507;52.754;13.040;2023-09-18T05:57:45;9.85;;;5.90;;
20695;SDS011;10507;52.754;13.040;2023-09-18T06:00:13;8.23;;;6.47;;
20695;SDS011;10507;52.754;13.040;2023-09-18T06:02:43;10.85;;;6.50;;
20695;SDS011;10507;52.754;13.040;2023-09-18T06:05:12;8.10;;;6.10;;
20695;SDS011;10507;52.754;13.040;2023-09-18T06:07:42;9.38;;;5.80;;
20695;SDS011;10507;52.754;13.040;2023-09-18T06:10:12;7.63;;;5.82;;
20695;SDS011;10507;52.754;13.040;2023-09-18T06:12:40;7.95;;;6.20;;
20695;SDS011;10507;52.754;13.040;2023-09-18T06:15:10;9.60;;;5.97;;
20695;SDS011;10507;52.754;13.040;2023-09-18T06:17:39;7.68;;;5.93;;
20695;SDS011;10507;52.754;13.040;2023-09-18T06:20:08;9.52;;;6.55;;
20695;SDS011;10507;52.754;13.040;2023-09-18T06:22:39;7.22;;;6.00;;
20695;SDS011;10507;52.754;13.040;2023-09-18T06:25:09;7.70;;;5.78;;
20695;SDS011;10507;52.754;13.040;2023-09-18T06:27:37;8.50;;;6.28;;
20695;SDS011;10507;52.754;13.040;2023-09-18T06:30:06;9.25;;;6.55;;
20695;SDS011;10507;52.754;13.040;2023-09-18T06:32:36;8.15;;;5.43;;
20695;SDS011;10507;52.754;13.040;2023-09-18T06:35:04;11.90;;;5.65;;
20695;SDS011;10507;52.754;13.040;2023-09-18T06:37:33;7.32;;;5.82;;
20695;SDS011;10507;52.754;13.040;2023-09-18T06:40:00;8.25;;;5.70;;
20695;SDS011;10507;52.754;13.040;2023-09-18T06:42:30;7.90;;;5.30;;
20695;SDS011;10507;52.754;13.040;2023-09-18T06:44:58;6.35;;;5.38;;
20695;SDS011;10507;52.754;13.040;2023-09-18T06:47:27;9.93;;;6.22;;
20695;SDS011;10507;52.754;13.040;2023-09-18T06:49:57;7.22;;;5.50;;
20695;SDS011;10507;52.754;13.040;2023-09-18T06:52:26;7.03;;;5.53;;
20695;SDS011;10507;52.754;13.040;2023-09-18T06:54:54;6.95;;;5.40;;
20695;SDS011;10507;52.754;13.040;2023-09-18T06:57:24;7.35;;;5.65;;
20695;SDS011;10507;52.754;13.040;2023-09-18T06:59:52;8.57;;;5.75;;
20695;SDS011;10507;52.754;13.040;2023-09-18T07:02:20;8.15;;;5.15;;
20695;SDS011;10507;52.754;13.040;2023-09-18T07:04:48;7.75;;;5.25;;
20695;SDS011;10507;52.754;13.040;2023-09-18T07:07:17;7.15;;;5.40;;
20695;SDS011;10507;52.754;13.040;2023-09-18T07:09:51;5.63;;;4.45;;
20695;SDS011;10507;52.754;13.040;2023-09-18T07:12:31;6.28;;;5.50;;
20695;SDS011;10507;52.754;13.040;2023-09-18T07:15:00;6.40;;;4.85;;
20695;SDS011;10507;52.754;13.040;2023-09-18T07:17:30;7.90;;;4.80;;
20695;SDS011;10507;52.754;13.040;2023-09-18T07:19:58;6.97;;;4.57;;
20695;SDS011;10507;52.754;13.040;2023-09-18T07:22:27;5.50;;;4.50;;
20695;SDS011;10507;52.754;13.040;2023-09-18T07:24:56;6.03;;;4.50;;
20695;SDS011;10507;52.754;13.040;2023-09-18T07:27:24;7.03;;;4.95;;
20695;SDS011;10507;52.754;13.040;2023-09-18T07:29:55;8.02;;;5.68;;
20695;SDS011;10507;52.754;13.040;2023-09-18T07:32:23;6.55;;;4.60;;
20695;SDS011;10507;52.754;13.040;2023-09-18T07:35:04;6.20;;;4.45;;
20695;SDS011;10507;52.754;13.040;2023-09-18T07:37:35;7.20;;;4.57;;
20695;SDS011;10507;52.754;13.040;2023-09-18T07:40:03;6.93;;;4.47;;
20695;SDS011;10507;52.754;13.040;2023-09-18T07:42:32;6.93;;;4.70;;
20695;SDS011;10507;52.754;13.040;2023-09-18T07:45:00;7.47;;;4.72;;
20695;SDS011;10507;52.754;13.040;2023-09-18T07:47:27;8.98;;;5.30;;
20695;SDS011;10507;52.754;13.040;2023-09-18T07:49:57;6.47;;;4.90;;
20695;SDS011;10507;52.754;13.040;2023-09-18T07:52:25;7.10;;;4.75;;
20695;SDS011;10507;52.754;13.040;2023-09-18T07:54:54;6.07;;;4.57;;
20695;SDS011;10507;52.754;13.040;2023-09-18T07:57:25;7.30;;;4.22;;
20695;SDS011;10507;52.754;13.040;2023-09-18T07:59:54;6.78;;;4.20;;
20695;SDS011;10507;52.754;13.040;2023-09-18T08:02:22;5.57;;;4.22;;
20695;SDS011;10507;52.754;13.040;2023-09-18T08:04:51;8.50;;;4.22;;
20695;SDS011;10507;52.754;13.040;2023-09-18T08:07:19;7.10;;;4.35;;
20695;SDS011;10507;52.754;13.040;2023-09-18T08:09:47;6.57;;;4.38;;
20695;SDS011;10507;52.754;13.040;2023-09-18T08:12:16;8.35;;;4.28;;
20695;SDS011;10507;52.754;13.040;2023-09-18T08:14:44;7.82;;;3.88;;
20695;SDS011;10507;52.754;13.040;2023-09-18T08:17:13;6.10;;;3.80;;
20695;SDS011;10507;52.754;13.040;2023-09-18T08:19:40;5.43;;;3.80;;
20695;SDS011;10507;52.754;13.040;2023-09-18T08:22:10;5.57;;;4.10;;
20695;SDS011;10507;52.754;13.040;2023-09-18T08:24:41;8.20;;;4.38;;
20695;SDS011;10507;52.754;13.040;2023-09-18T08:27:13;6.80;;;3.90;;
20695;SDS011;10507;52.754;13.040;2023-09-18T08:29:45;7.13;;;4.22;;
20695;SDS011;10507;52.754;13.040;2023-09-18T08:32:13;7.22;;;3.90;;
20695;SDS011;10507;52.754;13.040;2023-09-18T08:34:41;6.53;;;3.75;;
20695;SDS011;10507;52.754;13.040;2023-09-18T08:37:09;7.00;;;3.97;;
20695;SDS011;10507;52.754;13.040;2023-09-18T08:39:37;4.93;;;3.65;;
20695;SDS011;10507;52.754;13.040;2023-09-18T08:42:05;5.10;;;3.80;;
20695;SDS011;10507;52.754;13.040;2023-09-18T08:44:36;5.57;;;4.07;;
20695;SDS011;10507;52.754;13.040;2023-09-18T08:47:08;6.40;;;4.40;;
20695;SDS011;10507;52.754;13.040;2023-09-18T08:49:37;6.00;;;3.83;;
20695;SDS011;10507;52.754;13.040;2023-09-18T08:52:07;8.77;;;4.10;;
20695;SDS011;10507;52.754;13.040;2023-09-18T08:54:36;6.43;;;3.33;;
20695;SDS011;10507;52.754;13.040;2023-09-18T08:57:04;5.50;;;3.70;;
20695;SDS011;10507;52.754;13.040;2023-09-18T08:59:34;6.15;;;3.63;;
20695;SDS011;10507;52.754;13.040;2023-09-18T09:02:03;4.70;;;3.55;;
20695;SDS011;10507;52.754;13.040;2023-09-18T09:04:32;4.50;;;3.38;;
20695;SDS011;10507;52.754;13.040;2023-09-18T09:07:00;6.07;;;3.92;;
20695;SDS011;10507;52.754;13.040;2023-09-18T09:09:28;6.90;;;3.95;;
20695;SDS011;10507;52.754;13.040;2023-09-18T09:11:57;3.67;;;3.13;;
20695;SDS011;10507;52.754;13.040;2023-09-18T09:14:25;5.72;;;3.58;;
20695;SDS011;10507;52.754;13.040;2023-09-18T09:16:55;8.88;;;3.78;;
20695;SDS011;10507;52.754;13.040;2023-09-18T09:19:27;8.68;;;3.83;;
20695;SDS011;10507;52.754;13.040;2023-09-18T09:21:58;4.50;;;3.22;;
20695;SDS011;10507;52.754;13.040;2023-09-18T09:24:37;7.40;;;4.10;;
20695;SDS011;10507;52.754;13.040;2023-09-18T09:27:06;4.80;;;3.40;;
20695;SDS011;10507;52.754;13.040;2023-09-18T09:29:35;4.93;;;3.85;;
20695;SDS011;10507;52.754;13.040;2023-09-18T09:32:15;4.70;;;3.67;;
20695;SDS011;10507;52.754;13.040;2023-09-18T09:34:45;6.40;;;3.55;;
20695;SDS011;10507;52.754;13.040;2023-09-18T09:37:15;6.63;;;3.65;;
20695;SDS011;10507;52.754;13.040;2023-09-18T09:39:46;6.65;;;3.92;;
20695;SDS011;10507;52.754;13.040;2023-09-18T09:42:18;4.60;;;3.33;;
20695;SDS011;10507;52.754;13.040;2023-09-18T09:45:01;7.75;;;3.92;;
20695;SDS011;10507;52.754;13.040;2023-09-18T09:47:34;7.30;;;3.53;;
20695;SDS011;10507;52.754;13.040;2023-09-18T09:50:06;4.95;;;3.78;;
20695;SDS011;10507;52.754;13.040;2023-09-18T09:52:39;8.13;;;3.20;;
20695;SDS011;10507;52.754;13.040;2023-09-18T09:55:20;4.45;;;3.25;;
20695;SDS011;10507;52.754;13.040;2023-09-18T09:57:50;8.02;;;3.40;;
20695;SDS011;10507;52.754;13.040;2023-09-18T10:00:23;9.18;;;3.97;;
20695;SDS011;10507;52.754;13.040;2023-09-18T10:02:57;4.50;;;3.55;;
20695;SDS011;10507;52.754;13.040;2023-09-18T10:05:27;8.15;;;4.00;;
20695;SDS011;10507;52.754;13.040;2023-09-18T10:07:59;5.93;;;3.38;;
20695;SDS011;10507;52.754;13.040;2023-09-18T10:10:32;5.00;;;3.35;;
20695;SDS011;10507;52.754;13.040;2023-09-18T10:13:04;5.65;;;3.75;;
20695;SDS011;10507;52.754;13.040;2023-09-18T10:15:36;5.10;;;3.42;;
20695;SDS011;10507;52.754;13.040;2023-09-18T10:18:22;4.55;;;3.17;;
20695;SDS011;10507;52.754;13.040;2023-09-18T10:20:57;7.88;;;3.63;;
20695;SDS011;10507;52.754;13.040;2023-09-18T10:23:44;3.88;;;3.17;;
20695;SDS011;10507;52.754;13.040;2023-09-18T10:26:21;6.03;;;3.47;;
20695;SDS011;10507;52.754;13.040;2023-09-18T10:28:52;6.20;;;3.72;;
20695;SDS011;10507;52.754;13.040;2023-09-18T10:31:25;8.13;;;4.15;;
20695;SDS011;10507;52.754;13.040;2023-09-18T10:33:54;5.88;;;3.25;;
20695;SDS011;10507;52.754;13.040;2023-09-18T10:36:24;4.97;;;3.75;;
20695;SDS011;10507;52.754;13.040;2023-09-18T10:38:54;5.90;;;3.10;;
20695;SDS011;10507;52.754;13.040;2023-09-18T10:41:25;5.43;;;3.40;;
20695;SDS011;10507;52.754;13.040;2023-09-18T10:43:54;4.57;;;3.28;;
20695;SDS011;10507;52.754;13.040;2023-09-18T10:46:24;7.70;;;3.30;;
20695;SDS011;10507;52.754;13.040;2023-09-18T10:48:53;5.10;;;3.47;;
20695;SDS011;10507;52.754;13.040;2023-09-18T10:51:22;3.78;;;3.15;;
20695;SDS011;10507;52.754;13.040;2023-09-18T10:53:51;5.03;;;2.97;;
20695;SDS011;10507;52.754;13.040;2023-09-18T10:56:24;4.90;;;3.10;;
20695;SDS011;10507;52.754;13.040;2023-09-18T10:58:56;4.72;;;3.00;;
20695;SDS011;10507;52.754;13.040;2023-09-18T11:01:25;6.63;;;3.50;;
20695;SDS011;10507;52.754;13.040;2023-09-18T11:03:57;5.05;;;3.00;;
20695;SDS011;10507;52.754;13.040;2023-09-18T11:06:28;4.85;;;3.50;;
20695;SDS011;10507;52.754;13.040;2023-09-18T11:09:00;4.35;;;3.30;;
20695;SDS011;10507;52.754;13.040;2023-09-18T11:11:31;4.63;;;3.47;;
20695;SDS011;10507;52.754;13.040;2023-09-18T11:14:02;7.25;;;3.85;;
20695;SDS011;10507;52.754;13.040;2023-09-18T11:16:34;6.32;;;3.53;;
20695;SDS011;10507;52.754;13.040;2023-09-18T11:19:08;4.88;;;3.90;;
20695;SDS011;10507;52.754;13.040;2023-09-18T11:21:38;5.38;;;3.42;;
20695;SDS011;10507;52.754;13.040;2023-09-18T11:24:08;3.80;;;3.03;;
20695;SDS011;10507;52.754;13.040;2023-09-18T11:26:44;5.00;;;4.07;;
20695;SDS011;10507;52.754;13.040;2023-09-18T11:29:15;5.30;;;3.97;;
20695;SDS011;10507;52.754;13.040;2023-09-18T11:31:46;4.57;;;3.83;;
20695;SDS011;10507;52.754;13.040;2023-09-18T11:34:19;6.22;;;3.30;;
20695;SDS011;10507;52.754;13.040;2023-09-18T11:36:49;4.97;;;3.58;;
20695;SDS011;10507;52.754;13.040;2023-09-18T11:39:35;5.88;;;3.70;;
20695;SDS011;10507;52.754;13.040;2023-09-18T11:42:08;4.47;;;3.63;;
20695;SDS011;10507;52.754;13.040;2023-09-18T11:44:37;5.38;;;3.90;;
20695;SDS011;10507;52.754;13.040;2023-09-18T11:47:10;5.40;;;3.58;;
20695;SDS011;10507;52.754;13.040;2023-09-18T11:49:46;7.00;;;3.67;;
20695;SDS011;10507;52.754;13.040;2023-09-18T11:52:17;5.05;;;3.42;;
20695;SDS011;10507;52.754;13.040;2023-09-18T11:54:48;6.13;;;3.85;;
20695;SDS011;10507;52.754;13.040;2023-09-18T11:57:17;5.88;;;3.92;;
20695;SDS011;10507;52.754;13.040;2023-09-18T11:59:45;4.78;;;3.40;;
20695;SDS011;10507;52.754;13.040;2023-09-18T12:02:14;4.82;;;3.47;;
20695;SDS011;10507;52.754;13.040;2023-09-18T12:04:55;4.75;;;3.63;;
20695;SDS011;10507;52.754;13.040;2023-09-18T12:07:23;5.22;;;4.03;;
20695;SDS011;10507;52.754;13.040;2023-09-18T12:09:52;4.60;;;3.70;;
20695;SDS011;10507;52.754;13.040;2023-09-18T12:12:21;4.78;;;3.63;;
20695;SDS011;10507;52.754;13.040;2023-09-18T12:14:49;5.20;;;3.70;;
20695;SDS011;10507;52.754;13.040;2023-09-18T12:17:19;5.75;;;3.60;;
20695;SDS011;10507;52.754;13.040;2023-09-18T12:19:50;5.68;;;3.53;;
20695;SDS011;10507;52.754;13.040;2023-09-18T12:22:23;5.40;;;3.35;;
20695;SDS011;10507;52.754;13.040;2023-09-18T12:24:53;5.57;;;3.58;;
20695;SDS011;10507;52.754;13.040;2023-09-18T12:27:21;4.55;;;3.65;;
20695;SDS011;10507;52.754;13.040;2023-09-18T12:29:53;4.40;;;3.15;;
20695;SDS011;10507;52.754;13.040;2023-09-18T12:32:22;7.07;;;3.67;;
20695;SDS011;10507;52.754;13.040;2023-09-18T12:34:52;4.35;;;3.50;;
20695;SDS011;10507;52.754;13.040;2023-09-18T12:37:21;5.57;;;3.50;;
20695;SDS011;10507;52.754;13.040;2023-09-18T12:39:50;5.57;;;3.00;;
20695;SDS011;10507;52.754;13.040;2023-09-18T12:42:20;5.07;;;3.05;;
20695;SDS011;10507;52.754;13.040;2023-09-18T12:44:48;4.35;;;2.88;;
20695;SDS011;10507;52.754;13.040;2023-09-18T12:47:17;6.68;;;3.35;;
20695;SDS011;10507;52.754;13.040;2023-09-18T12:49:47;5.32;;;3.28;;
20695;SDS011;10507;52.754;13.040;2023-09-18T12:52:21;7.18;;;3.92;;
20695;SDS011;10507;52.754;13.040;2023-09-18T12:54:49;4.22;;;3.03;;
20695;SDS011;10507;52.754;13.040;2023-09-18T12:57:22;5.55;;;3.50;;
20695;SDS011;10507;52.754;13.040;2023-09-18T12:59:50;4.13;;;3.28;;
20695;SDS011;10507;52.754;13.040;2023-09-18T13:02:20;5.50;;;3.28;;
20695;SDS011;10507;52.754;13.040;2023-09-18T13:04:55;3.95;;;3.13;;
20695;SDS011;10507;52.754;13.040;2023-09-18T13:07:25;4.68;;;3.45;;
20695;SDS011;10507;52.754;13.040;2023-09-18T13:09:59;7.50;;;3.28;;
20695;SDS011;10507;52.754;13.040;2023-09-18T13:12:45;4.85;;;3.40;;
20695;SDS011;10507;52.754;13.040;2023-09-18T13:15:26;3.75;;;3.08;;
20695;SDS011;10507;52.754;13.040;2023-09-18T13:17:56;3.85;;;2.80;;
20695;SDS011;10507;52.754;13.040;2023-09-18T13:20:26;4.32;;;2.97;;
20695;SDS011;10507;52.754;13.040;2023-09-18T13:22:56;3.92;;;2.95;;
20695;SDS011;10507;52.754;13.040;2023-09-18T13:25:28;6.70;;;2.83;;
20695;SDS011;10507;52.754;13.040;2023-09-18T13:27:58;4.97;;;3.15;;
20695;SDS011;10507;52.754;13.040;2023-09-18T13:30:26;5.30;;;3.60;;
20695;SDS011;10507;52.754;13.040;2023-09-18T13:33:01;5.57;;;3.30;;
20695;SDS011;10507;52.754;13.040;2023-09-18T13:35:30;5.38;;;3.08;;
20695;SDS011;10507;52.754;13.040;2023-09-18T13:37:58;4.93;;;3.15;;
20695;SDS011;10507;52.754;13.040;2023-09-18T13:40:25;8.40;;;3.58;;
20695;SDS011;10507;52.754;13.040;2023-09-18T13:42:54;6.07;;;3.25;;
20695;SDS011;10507;52.754;13.040;2023-09-18T13:45:23;5.85;;;3.63;;
20695;SDS011;10507;52.754;13.040;2023-09-18T13:47:51;6.75;;;3.33;;
20695;SDS011;10507;52.754;13.040;2023-09-18T13:50:19;6.05;;;3.38;;
20695;SDS011;10507;52.754;13.040;2023-09-18T13:52:47;4.47;;;3.40;;
20695;SDS011;10507;52.754;13.040;2023-09-18T13:55:15;5.25;;;2.90;;
20695;SDS011;10507;52.754;13.040;2023-09-18T13:57:43;10.00;;;3.10;;
20695;SDS011;10507;52.754;13.040;2023-09-18T14:00:11;6.80;;;3.40;;
20695;SDS011;10507;52.754;13.040;2023-09-18T14:02:41;4.60;;;3.38;;
20695;SDS011;10507;52.754;13.040;2023-09-18T14:05:09;6.82;;;3.88;;
20695;SDS011;10507;52.754;13.040;2023-09-18T14:07:43;7.28;;;3.40;;
20695;SDS011;10507;52.754;13.040;2023-09-18T14:10:11;6.07;;;3.40;;
20695;SDS011;10507;52.754;13.040;2023-09-18T14:12:39;4.35;;;2.92;;
20695;SDS011;10507;52.754;13.040;2023-09-18T14:15:09;4.93;;;3.05;;
20695;SDS011;10507;52.754;13.040;2023-09-18T14:17:38;6.70;;;3.53;;
20695;SDS011;10507;52.754;13.040;2023-09-18T14:20:08;7.05;;;3.00;;
20695;SDS011;10507;52.754;13.040;2023-09-18T14:22:37;6.28;;;3.63;;
20695;SDS011;10507;52.754;13.040;2023-09-18T14:25:05;6.53;;;3.20;;
20695;SDS011;10507;52.754;13.040;2023-09-18T14:27:33;5.80;;;3.60;;
20695;SDS011;10507;52.754;13.040;2023-09-18T14:30:02;5.35;;;3.10;;
20695;SDS011;10507;52.754;13.040;2023-09-18T14:32:33;8.00;;;3.10;;
20695;SDS011;10507;52.754;13.040;2023-09-18T14:35:02;5.85;;;3.28;;
20695;SDS011;10507;52.754;13.040;2023-09-18T14:37:35;5.15;;;3.15;;
20695;SDS011;10507;52.754;13.040;2023-09-18T14:40:03;6.07;;;3.20;;
20695;SDS011;10507;52.754;13.040;2023-09-18T14:42:31;6.82;;;3.42;;
20695;SDS011;10507;52.754;13.040;2023-09-18T14:45:00;3.83;;;2.63;;
20695;SDS011;10507;52.754;13.040;2023-09-18T14:47:28;4.70;;;2.85;;
20695;SDS011;10507;52.754;13.040;2023-09-18T14:49:57;7.05;;;3.70;;